Time;durP1;ratioP1;P1;durP2;ratioP2;P2;SDS_P1;SDS_P2;PMS_P1;PMS_P2;Temp;Humidity;BMP_temperature;BMP_pressure;BME280_temperature;BME280_humidity;BME280_pressure;Samples;Min_cycle;Max_cycle;Signal;HPM_P1;HPM_P2
2022/04/13 00:01:59;;;;;;;;;5.50;2.00;;;;;17.05;55.42;100635.03;5057459;28;45364;-57
2022/04/13 00:04:24;;;;;;;;;1.00;1.00;;;;;17.05;55.29;100632.25;5057770;28;45661;-58
2022/04/13 00:06:50;;;;;;;;;1.75;1.00;;;;;17.15;54.95;100643.47;5022891;28;46569;-52
2022/04/13 00:09:16;;;;;;;;;2.00;1.00;;;;;17.15;54.85;100648.19;5039197;28;45418;-55
2022/04/13 00:11:41;;;;;;;;;1.25;1.25;;;;;16.79;55.50;100613.34;5057841;28;45466;-58
2022/04/13 00:14:07;;;;;;;;;3.00;2.00;;;;;17.04;55.24;100638.91;5057544;28;45346;-53
2022/04/13 00:16:32;;;;;;;;;2.00;2.00;;;;;17.10;54.99;100651.72;5057500;28;46570;-55
2022/04/13 00:18:58;;;;;;;;;0.75;0.75;;;;;17.08;55.31;100651.16;5056875;28;45450;-57
2022/04/13 00:21:23;;;;;;;;;2.00;2.00;;;;;17.03;55.21;100657.47;5057278;28;45417;-53
2022/04/13 00:23:49;;;;;;;;;2.00;2.00;;;;;17.04;55.34;100642.50;5057202;28;46060;-56
2022/04/13 00:26:14;;;;;;;;;2.75;1.75;;;;;17.16;55.26;100660.94;5038838;28;45486;-53
2022/04/13 00:28:41;;;;;;;;;3.00;1.75;;;;;17.16;55.07;100658.16;5057107;28;45391;-55
2022/04/13 00:31:06;;;;;;;;;1.00;1.00;;;;;17.06;55.59;100667.19;5039516;28;45398;-56
2022/04/13 00:33:33;;;;;;;;;1.00;1.00;;;;;17.05;55.60;100674.69;5057437;28;45537;-56
2022/04/13 00:35:58;;;;;;;;;2.20;1.40;;;;;17.00;55.60;100665.41;5056655;28;45687;-55
2022/04/13 00:38:27;;;;;;;;;1.00;1.00;;;;;16.99;55.94;100660.97;5072542;28;45296;-55
2022/04/13 00:40:53;;;;;;;;;2.40;1.00;;;;;17.12;55.59;100671.72;5057115;28;45443;-55
2022/04/13 00:43:18;;;;;;;;;1.00;1.00;;;;;17.18;55.70;100667.91;5057033;28;45676;-55
2022/04/13 00:45:47;;;;;;;;;1.25;1.25;;;;;17.18;55.80;100664.31;5072161;28;47156;-55
2022/04/13 00:48:31;;;;;;;;;1.60;1.60;;;;;17.18;55.54;100669.88;5056849;28;45359;-53
2022/04/13 00:50:56;;;;;;;;;2.00;0.60;;;;;16.49;55.35;100575.81;5056716;28;45415;-53
2022/04/13 00:53:23;;;;;;;;;1.00;1.00;;;;;16.97;56.28;100652.91;5056997;28;45329;-54
2022/04/13 00:55:48;;;;;;;;;1.60;1.60;;;;;16.68;56.51;100617.06;5038711;28;46139;-55
2022/04/13 00:58:14;;;;;;;;;2.00;1.25;;;;;16.79;56.83;100665.16;5038374;28;45531;-56
2022/04/13 01:00:48;;;;;;;;;2.50;2.00;;;;;16.73;56.93;100652.31;5072414;28;45481;-53
2022/04/13 01:03:15;;;;;;;;;1.00;1.00;;;;;16.57;56.77;100624.41;5039925;28;45407;-55
2022/04/13 01:05:41;;;;;;;;;0.40;0.40;;;;;16.83;56.62;100663.56;5056363;28;46144;-56
2022/04/13 01:08:08;;;;;;;;;2.75;1.00;;;;;16.81;57.10;100654.63;5056508;28;45355;-52
2022/04/13 01:10:33;;;;;;;;;1.40;1.40;;;;;16.86;56.76;100663.03;5055688;28;45535;-57
2022/04/13 01:12:59;;;;;;;;;4.00;1.25;;;;;16.90;56.78;100660.56;5072595;28;45342;-55
2022/04/13 01:15:24;;;;;;;;;2.75;2.75;;;;;16.81;56.78;100649.09;5056439;28;45417;-55
2022/04/13 01:17:50;;;;;;;;;1.00;1.00;;;;;16.90;56.95;100652.25;5056193;28;45375;-57
2022/04/13 01:20:16;;;;;;;;;3.75;1.00;;;;;16.75;56.87;100625.19;5038311;28;45356;-54
2022/04/13 01:22:44;;;;;;;;;2.00;2.00;;;;;16.73;56.93;100628.22;5050809;28;45342;-54
2022/04/13 01:25:10;;;;;;;;;2.00;2.00;;;;;16.96;56.79;100661.50;5051966;28;45311;-54
2022/04/13 01:27:36;;;;;;;;;1.75;1.00;;;;;16.86;57.15;100662.19;5036013;28;45412;-59
2022/04/13 01:30:01;;;;;;;;;5.50;2.25;;;;;16.87;57.03;100666.66;5056145;28;45393;-52
2022/04/13 01:32:27;;;;;;;;;3.00;1.00;;;;;16.90;57.42;100663.34;5035650;28;45534;-56
2022/04/13 01:34:53;;;;;;;;;3.50;3.25;;;;;16.84;57.34;100665.22;5053545;28;46484;-53
2022/04/13 01:37:19;;;;;;;;;4.20;2.00;;;;;16.84;57.65;100672.69;5053646;28;45525;-55
2022/04/13 01:39:44;;;;;;;;;2.00;2.00;;;;;16.83;57.47;100677.41;5034930;28;45397;-57
2022/04/13 01:42:10;;;;;;;;;1.00;1.00;;;;;16.43;57.74;100610.06;5046526;28;45579;-55
2022/04/13 01:44:35;;;;;;;;;1.25;1.25;;;;;16.83;57.88;100685.72;5037655;28;45570;-55
2022/04/13 01:47:01;;;;;;;;;2.75;1.75;;;;;16.76;57.64;100669.25;5037638;28;45393;-57
2022/04/13 01:49:26;;;;;;;;;3.00;3.00;;;;;16.80;57.56;100676.00;5055918;28;45326;-56
2022/04/13 01:51:52;;;;;;;;;2.25;2.00;;;;;16.57;57.60;100634.63;5056283;28;45322;-59
2022/04/13 01:54:17;;;;;;;;;3.75;2.75;;;;;16.59;57.58;100635.22;5037950;28;45680;-57
2022/04/13 01:56:43;;;;;;;;;1.75;1.75;;;;;16.57;57.61;100641.03;5054658;28;45401;-58
2022/04/13 01:59:09;;;;;;;;;2.00;2.00;;;;;16.85;57.89;100689.06;5037213;28;45370;-57
2022/04/13 02:01:35;;;;;;;;;3.50;3.25;;;;;16.84;57.89;100684.63;5056286;28;45309;-55
2022/04/13 02:04:01;;;;;;;;;3.20;2.00;;;;;16.89;57.65;100695.78;5037118;28;46520;-57
2022/04/13 02:06:27;;;;;;;;;3.00;1.00;;;;;16.67;57.79;100668.84;5055809;28;45387;-58
2022/04/13 02:08:52;;;;;;;;;3.75;2.00;;;;;16.91;57.55;100692.75;5055695;28;45374;-55
2022/04/13 02:11:18;;;;;;;;;2.00;2.00;;;;;16.74;57.65;100668.69;5055723;28;45459;-57
2022/04/13 02:13:43;;;;;;;;;2.00;2.00;;;;;16.89;57.51;100695.78;5055534;28;46149;-57
2022/04/13 02:16:09;;;;;;;;;2.25;1.00;;;;;16.90;57.69;100696.63;5037348;28;45374;-55
2022/04/13 02:18:35;;;;;;;;;3.75;2.00;;;;;16.72;57.78;100676.44;5037929;28;45366;-57
2022/04/13 02:21:00;;;;;;;;;2.00;2.00;;;;;16.87;57.79;100702.69;5037514;28;45442;-54
2022/04/13 02:23:25;;;;;;;;;2.50;2.50;;;;;16.60;57.75;100662.66;5055225;28;46720;-56
2022/04/13 02:25:51;;;;;;;;;4.25;4.25;;;;;16.88;57.77;100705.22;5032080;28;45422;-55
2022/04/13 02:28:17;;;;;;;;;3.75;2.25;;;;;16.81;58.15;100701.75;5053042;28;45427;-54
2022/04/13 02:30:42;;;;;;;;;2.25;2.25;;;;;16.82;58.04;100710.91;5054681;28;45522;-56
2022/04/13 02:33:08;;;;;;;;;6.00;3.00;;;;;16.81;58.21;100710.06;5053961;28;48111;-52
2022/04/13 02:35:33;;;;;;;;;2.50;2.50;;;;;16.69;59.29;100721.25;5053790;28;45935;-58
2022/04/13 02:37:59;;;;;;;;;4.00;3.50;;;;;16.67;59.72;100713.19;5037240;28;45425;-53
2022/04/13 02:40:24;;;;;;;;;2.50;2.00;;;;;16.60;59.63;100715.31;5055435;28;45516;-55
2022/04/13 02:42:50;;;;;;;;;3.75;2.50;;;;;16.58;59.65;100705.56;5053361;28;47015;-58
2022/04/13 02:45:16;;;;;;;;;4.00;4.00;;;;;16.64;59.87;100716.47;5035742;28;45441;-55
2022/04/13 02:47:41;;;;;;;;;2.25;1.50;;;;;16.53;60.01;100714.63;5054919;28;45416;-55
2022/04/13 02:50:08;;;;;;;;;4.00;3.00;;;;;16.51;60.38;100712.16;5055193;28;45472;-56
2022/04/13 02:52:33;;;;;;;;;2.00;2.00;;;;;16.42;60.48;100701.75;5054982;28;46527;-54
2022/04/13 02:54:59;;;;;;;;;4.00;4.00;;;;;16.50;60.66;100707.66;5069749;28;45403;-55
2022/04/13 02:57:24;;;;;;;;;3.75;3.75;;;;;16.54;60.69;100716.31;5054939;28;45739;-55
2022/04/13 02:59:50;;;;;;;;;3.00;3.00;;;;;16.50;60.92;100702.13;5053565;28;45821;-54
2022/04/13 03:02:16;;;;;;;;;7.00;4.00;;;;;16.53;60.98;100707.19;5055001;28;46446;-56
2022/04/13 03:04:43;;;;;;;;;5.25;4.75;;;;;16.50;61.18;100699.34;5070909;28;45825;-53
2022/04/13 03:07:14;;;;;;;;;4.80;3.00;;;;;16.56;61.22;100700.28;5055011;28;45441;-53
2022/04/13 03:09:40;;;;;;;;;3.20;3.20;;;;;16.51;61.43;100725.16;5038067;28;45353;-53
2022/04/13 03:12:06;;;;;;;;;4.25;4.00;;;;;16.51;61.33;100725.16;5054914;28;46229;-57
2022/04/13 03:14:32;;;;;;;;;3.20;2.80;;;;;16.33;61.49;100704.91;5053687;28;45384;-54
2022/04/13 03:16:57;;;;;;;;;5.00;3.60;;;;;16.40;61.72;100722.19;5020417;28;45443;-56
2022/04/13 03:19:23;;;;;;;;;3.75;3.00;;;;;16.42;62.26;100735.81;5055397;28;45461;-56
2022/04/13 03:21:51;;;;;;;;;6.00;4.50;;;;;16.10;63.11;100711.44;5054780;28;45482;-53
2022/04/13 03:24:17;;;;;;;;;2.60;2.60;;;;;16.25;63.21;100741.34;5054994;28;45622;-56
2022/04/13 03:26:43;;;;;;;;;6.60;4.80;;;;;16.31;63.19;100748.63;5055060;28;45276;-57
2022/04/13 03:29:09;;;;;;;;;3.00;3.00;;;;;16.29;63.20;100736.97;5054925;28;45558;-53
2022/04/13 03:31:35;;;;;;;;;6.40;5.20;;;;;16.17;63.33;100723.19;5070019;28;45372;-54
2022/04/13 03:34:00;;;;;;;;;4.00;4.00;;;;;16.37;63.63;100753.19;5054759;28;45350;-56
2022/04/13 03:36:26;;;;;;;;;5.00;5.00;;;;;16.08;63.62;100711.72;5036479;28;45357;-54
2022/04/13 03:38:51;;;;;;;;;4.50;4.00;;;;;16.38;63.73;100760.38;5055148;28;45292;-53
2022/04/13 03:41:18;;;;;;;;;6.50;5.25;;;;;16.33;63.80;100753.94;5069668;28;47505;-55
2022/04/13 03:43:43;;;;;;;;;5.40;4.00;;;;;16.23;63.76;100738.81;5070036;28;45492;-54
2022/04/13 03:46:09;;;;;;;;;4.75;4.75;;;;;16.28;64.31;100754.69;5054236;28;45418;-56
2022/04/13 03:48:34;;;;;;;;;3.00;3.00;;;;;16.34;64.17;100761.16;5069925;28;45444;-55
2022/04/13 03:51:00;;;;;;;;;4.75;4.75;;;;;16.21;64.57;100735.44;5036189;28;45600;-55
2022/04/13 03:53:26;;;;;;;;;5.25;5.25;;;;;16.33;64.36;100756.72;5054284;28;45462;-56
2022/04/13 03:55:51;;;;;;;;;3.50;3.50;;;;;16.36;65.26;100764.50;5054208;28;45420;-53
2022/04/13 03:58:17;;;;;;;;;4.50;4.00;;;;;16.33;64.96;100771.38;5057882;28;45430;-57
2022/04/13 04:00:42;;;;;;;;;6.25;5.50;;;;;16.31;65.24;100762.47;5057563;28;47090;-52
2022/04/13 04:03:08;;;;;;;;;4.00;4.00;;;;;16.28;65.39;100773.22;5057916;28;45420;-55
2022/04/13 04:05:33;;;;;;;;;7.75;4.00;;;;;16.23;65.53;100762.91;5058117;28;45305;-54
2022/04/13 04:07:59;;;;;;;;;5.00;5.00;;;;;16.25;65.63;100769.88;5058080;28;45355;-56
2022/04/13 04:10:24;;;;;;;;;4.00;4.00;;;;;16.22;65.84;100773.13;5039840;28;45895;-57
2022/04/13 04:12:50;;;;;;;;;5.25;4.00;;;;;15.95;65.56;100731.41;5057541;28;45358;-57
2022/04/13 04:15:16;;;;;;;;;4.75;4.75;;;;;16.09;65.96;100762.38;5036392;28;45358;-55
2022/04/13 04:17:41;;;;;;;;;3.75;3.25;;;;;16.13;66.56;100772.69;5055530;28;45252;-59
2022/04/13 04:20:07;;;;;;;;;7.00;5.25;;;;;16.11;66.67;100783.19;5057687;28;46036;-57
2022/04/13 04:22:34;;;;;;;;;7.00;4.60;;;;;16.07;66.80;100781.97;5057400;28;45367;-54
2022/04/13 04:25:03;;;;;;;;;6.00;6.00;;;;;16.03;66.84;100780.81;5039350;28;45418;-61
2022/04/13 04:27:28;;;;;;;;;7.00;7.00;;;;;15.78;67.18;100748.75;5057803;28;45611;-58
2022/04/13 04:29:54;;;;;;;;;6.75;5.75;;;;;15.42;67.12;100679.72;5057305;28;45340;-57
2022/04/13 04:32:20;;;;;;;;;4.00;4.00;;;;;16.06;66.73;100796.09;5055826;28;45537;-58
2022/04/13 04:34:45;;;;;;;;;6.25;4.00;;;;;16.02;66.82;100794.91;5057572;28;45388;-58
2022/04/13 04:37:11;;;;;;;;;5.00;4.00;;;;;16.00;67.39;100800.66;5057282;28;45359;-58
2022/04/13 04:39:36;;;;;;;;;5.25;5.25;;;;;15.99;66.99;100794.31;5057536;28;45497;-57
2022/04/13 04:42:04;;;;;;;;;5.75;5.75;;;;;16.02;67.34;100808.75;5057190;28;45300;-58
2022/04/13 04:44:30;;;;;;;;;4.00;4.00;;;;;15.26;66.99;100702.63;5022633;28;45465;-57
2022/04/13 04:46:55;;;;;;;;;8.00;6.60;;;;;15.59;67.60;100765.53;5039397;28;45562;-57
2022/04/13 04:49:21;;;;;;;;;5.00;5.00;;;;;15.74;67.73;100802.91;5055720;28;46821;-57
2022/04/13 04:51:46;;;;;;;;;4.25;4.25;;;;;15.71;67.77;100803.41;5057191;28;45953;-55
2022/04/13 04:54:11;;;;;;;;;6.50;6.25;;;;;15.76;68.35;100795.22;5057136;28;45399;-58
2022/04/13 04:56:37;;;;;;;;;6.00;5.50;;;;;15.86;67.94;100795.41;5055949;28;45447;-56
2022/04/13 04:59:03;;;;;;;;;8.75;6.75;;;;;15.90;67.42;100797.69;5056534;28;46225;-57
2022/04/13 05:01:28;;;;;;;;;8.25;6.00;;;;;15.92;67.89;100804.69;5038529;28;45320;-58
2022/04/13 05:03:54;;;;;;;;;7.50;6.25;;;;;15.95;68.00;100801.41;5056895;28;45334;-59
2022/04/13 05:06:21;;;;;;;;;7.75;6.00;;;;;15.97;67.30;100803.94;5056940;28;45282;-56
2022/04/13 05:08:48;;;;;;;;;8.40;7.00;;;;;15.94;67.40;100810.81;5070742;28;45539;-58
2022/04/13 05:11:13;;;;;;;;;5.40;5.40;;;;;15.90;67.84;100811.53;5038601;28;45418;-57
2022/04/13 05:13:39;;;;;;;;;8.00;8.00;;;;;15.88;67.89;100819.22;5056509;28;45449;-58
2022/04/13 05:16:05;;;;;;;;;5.75;5.75;;;;;15.79;68.19;100810.50;5056699;28;45270;-57
2022/04/13 05:18:31;;;;;;;;;8.60;7.00;;;;;15.71;68.25;100809.75;5072214;28;45465;-60
2022/04/13 05:20:57;;;;;;;;;7.00;6.00;;;;;15.45;67.52;100755.84;5054845;28;45481;-59
2022/04/13 05:23:22;;;;;;;;;6.75;6.75;;;;;15.89;67.37;100826.47;5038600;28;45434;-57
2022/04/13 05:25:48;;;;;;;;;7.50;7.00;;;;;15.94;67.53;100829.34;5056257;28;45481;-58
2022/04/13 05:28:15;;;;;;;;;8.50;6.75;;;;;15.94;67.62;100832.97;5056412;28;45445;-56
2022/04/13 05:30:40;;;;;;;;;7.20;5.60;;;;;15.92;68.05;100815.75;5038073;28;45460;-59
2022/04/13 05:33:06;;;;;;;;;8.75;7.25;;;;;16.00;67.85;100825.59;5056596;28;45343;-58
2022/04/13 05:35:32;;;;;;;;;7.80;7.60;;;;;15.97;67.54;100817.78;5055116;28;45548;-58
2022/04/13 05:37:57;;;;;;;;;8.50;7.25;;;;;15.84;67.47;100794.81;5055982;28;45725;-58
2022/04/13 05:40:24;;;;;;;;;9.50;7.50;;;;;16.04;67.19;100820.41;5056231;28;45508;-58
2022/04/13 05:42:55;;;;;;;;;7.80;7.20;;;;;16.06;67.33;100832.91;5037668;28;45415;-58
2022/04/13 05:45:20;;;;;;;;;9.60;9.60;;;;;15.82;67.55;100787.84;5056477;28;45489;-58
2022/04/13 05:47:46;;;;;;;;;10.00;10.00;;;;;15.86;67.39;100794.56;5037655;28;47346;-57
2022/04/13 05:50:12;;;;;;;;;10.50;9.25;;;;;16.04;67.77;100834.25;5055963;28;45283;-62
2022/04/13 05:52:39;;;;;;;;;10.00;9.40;;;;;16.03;67.56;100832.56;5055849;28;45345;-57
2022/04/13 05:55:05;;;;;;;;;7.60;7.00;;;;;16.02;67.90;100841.97;5055881;28;45493;-56
2022/04/13 05:57:30;;;;;;;;;10.80;8.40;;;;;15.94;68.15;100841.25;5037281;28;47834;-58
2022/04/13 05:59:56;;;;;;;;;12.75;9.75;;;;;15.96;68.10;100844.63;5033877;28;46013;-59
2022/04/13 06:02:22;;;;;;;;;10.25;8.75;;;;;15.95;67.55;100842.13;5017449;28;45503;-57
2022/04/13 06:04:47;;;;;;;;;6.75;6.75;;;;;15.89;68.25;100826.47;5014401;28;45673;-58
2022/04/13 06:07:13;;;;;;;;;9.50;8.25;;;;;16.02;67.94;100853.88;5033835;28;45468;-58
2022/04/13 06:09:39;;;;;;;;;9.75;9.00;;;;;16.05;67.78;100858.91;5035490;28;45648;-57
2022/04/13 06:12:05;;;;;;;;;10.75;9.00;;;;;16.06;67.98;100868.91;5035403;28;45322;-57
2022/04/13 06:14:30;;;;;;;;;10.20;9.20;;;;;16.03;68.51;100871.31;5035750;28;45341;-57
2022/04/13 06:16:55;;;;;;;;;8.75;8.00;;;;;15.99;67.91;100866.28;5033699;28;48453;-61
2022/04/13 06:19:21;;;;;;;;;15.00;11.00;;;;;16.07;68.35;100880.81;5035138;28;45406;-57
2022/04/13 06:21:47;;;;;;;;;11.50;11.50;;;;;16.03;68.08;100874.94;5034012;28;45385;-60
2022/04/13 06:24:12;;;;;;;;;6.00;6.00;;;;;15.96;68.74;100871.47;5035432;28;45563;-57
2022/04/13 06:26:38;;;;;;;;;11.75;9.00;;;;;16.04;68.57;100886.84;5034852;28;46108;-57
2022/04/13 06:29:03;;;;;;;;;9.75;9.75;;;;;15.57;68.57;100831.34;5035191;28;45296;-57
2022/04/13 06:31:29;;;;;;;;;8.75;8.75;;;;;15.88;69.55;100892.03;5035171;28;45388;-58
2022/04/13 06:33:54;;;;;;;;;9.50;9.00;;;;;15.85;69.16;100887.81;5035137;28;45593;-61
2022/04/13 06:36:20;;;;;;;;;9.00;9.00;;;;;15.89;69.31;100902.00;5002917;28;45772;-56
2022/04/13 06:38:46;;;;;;;;;9.00;9.00;;;;;15.86;69.11;100894.22;5025639;28;45461;-55
2022/04/13 06:41:12;;;;;;;;;8.50;8.50;;;;;15.42;69.61;100834.59;5027252;28;45532;-55
2022/04/13 06:43:38;;;;;;;;;11.75;9.50;;;;;15.89;69.24;100906.72;5028612;28;45461;-54
2022/04/13 06:46:03;;;;;;;;;13.20;11.00;;;;;15.94;69.40;100901.31;5045923;28;46904;-51
2022/04/13 06:48:29;;;;;;;;;12.00;10.00;;;;;15.86;69.21;100897.81;5028699;28;45797;-54
2022/04/13 06:50:55;;;;;;;;;11.50;11.50;;;;;16.01;69.20;100926.91;5031061;28;45446;-53
2022/04/13 06:53:23;;;;;;;;;13.25;11.00;;;;;15.86;69.17;100911.63;5029791;28;45681;-59
2022/04/13 06:55:49;;;;;;;;;9.40;8.60;;;;;16.01;69.15;100938.00;5027297;28;46515;-57
2022/04/13 06:58:15;;;;;;;;;10.00;8.50;;;;;15.97;69.32;100937.63;5029309;28;45428;-52
2022/04/13 07:00:41;;;;;;;;;5.20;4.80;;;;;15.52;69.42;100872.72;5046534;28;45476;-55
2022/04/13 07:03:06;;;;;;;;;15.50;14.00;;;;;16.08;69.45;100957.25;5032967;28;45693;-56
2022/04/13 07:05:32;;;;;;;;;12.50;11.00;;;;;16.08;69.90;100960.88;5048546;28;45460;-55
2022/04/13 07:07:58;;;;;;;;;16.25;14.00;;;;;16.06;69.91;100971.31;5010782;28;46022;-59
2022/04/13 07:10:26;;;;;;;;;14.60;10.20;;;;;16.05;69.83;100971.56;5047784;28;45785;-55
2022/04/13 07:12:51;;;;;;;;;14.00;12.20;;;;;16.05;69.35;100977.09;5050958;28;45944;-57
2022/04/13 07:15:17;;;;;;;;;13.50;11.50;;;;;16.02;69.64;100981.22;5050674;28;45966;-62
2022/04/13 07:17:43;;;;;;;;;17.50;14.25;;;;;15.63;69.84;100925.53;5049838;28;45756;-59
2022/04/13 07:20:10;;;;;;;;;11.20;11.20;;;;;16.03;70.12;100996.75;5066688;28;45964;-57
2022/04/13 07:22:45;;;;;;;;;11.80;10.80;;;;;16.04;69.75;101001.19;5050086;28;45412;-56
2022/04/13 07:25:11;;;;;;;;;10.40;9.40;;;;;16.03;70.00;101005.06;5050216;28;45559;-51
2022/04/13 07:27:36;;;;;;;;;11.20;10.60;;;;;16.05;69.72;101007.56;5047724;28;45488;-52
2022/04/13 07:30:02;;;;;;;;;15.25;13.25;;;;;16.02;69.71;101002.50;5049689;28;45505;-52
2022/04/13 07:32:28;;;;;;;;;13.50;10.00;;;;;15.91;69.74;100993.09;5053365;28;45572;-55
2022/04/13 07:34:53;;;;;;;;;11.25;11.00;;;;;15.91;69.88;101002.22;5053846;28;45418;-55
2022/04/13 07:37:19;;;;;;;;;12.50;10.00;;;;;15.96;69.87;101012.63;5044524;28;45424;-54
2022/04/13 07:39:44;;;;;;;;;7.25;7.25;;;;;15.96;69.24;101010.69;5054234;28;45707;-52
2022/04/13 07:42:10;;;;;;;;;9.00;7.00;;;;;15.90;68.84;101008.84;5034934;28;45390;-50
2022/04/13 07:44:35;;;;;;;;;11.00;8.25;;;;;15.88;68.92;101011.03;5035505;28;46160;-52
2022/04/13 07:47:01;;;;;;;;;7.50;7.25;;;;;15.84;69.29;101009.81;5054233;28;45433;-57
2022/04/13 07:49:26;;;;;;;;;11.25;9.00;;;;;15.90;69.38;101013.56;5053919;28;45371;-55
2022/04/13 07:51:52;;;;;;;;;9.00;9.00;;;;;15.78;69.40;100983.97;5052970;28;45734;-56
2022/04/13 07:54:17;;;;;;;;;12.50;9.75;;;;;15.96;69.95;100996.03;5067707;28;47679;-56
2022/04/13 07:56:43;;;;;;;;;9.00;9.00;;;;;16.10;69.55;101019.59;5069222;28;45421;-58
2022/04/13 07:59:08;;;;;;;;;11.25;10.25;;;;;16.02;69.30;100995.06;5069207;28;45444;-53
2022/04/13 08:01:34;;;;;;;;;8.50;8.50;;;;;16.12;68.94;101017.41;5054227;28;46049;-55
2022/04/13 08:03:59;;;;;;;;;10.00;10.00;;;;;16.06;69.29;101012.84;5053428;28;45614;-60
2022/04/13 08:06:25;;;;;;;;;9.75;9.75;;;;;16.01;69.05;101007.19;5048314;28;45537;-62
2022/04/13 08:08:50;;;;;;;;;8.75;8.75;;;;;16.07;68.91;101013.72;5013963;28;45591;-58
2022/04/13 08:11:16;;;;;;;;;9.00;8.25;;;;;16.10;69.19;101013.22;5050067;28;45450;-53
2022/04/13 08:13:41;;;;;;;;;11.00;10.75;;;;;16.11;69.13;101021.28;5052439;28;46291;-53
2022/04/13 08:16:07;;;;;;;;;13.25;12.25;;;;;16.15;68.87;101015.25;5052217;28;45455;-52
2022/04/13 08:18:32;;;;;;;;;8.00;8.00;;;;;16.13;68.75;101024.63;5050421;28;45625;-56
2022/04/13 08:20:59;;;;;;;;;7.75;6.25;;;;;15.98;68.42;101008.56;5052764;28;45516;-57
2022/04/13 08:23:24;;;;;;;;;6.20;4.20;;;;;15.80;69.26;100987.31;5051965;28;45702;-49
2022/04/13 08:25:50;;;;;;;;;10.25;7.00;;;;;16.04;68.66;101031.63;5052556;28;45516;-53
2022/04/13 08:28:16;;;;;;;;;13.50;10.00;;;;;16.06;68.27;101021.16;5052776;28;45677;-60
2022/04/13 08:30:41;;;;;;;;;10.50;9.00;;;;;15.79;68.07;100993.94;5032584;28;45740;-57
2022/04/13 08:33:07;;;;;;;;;7.50;7.00;;;;;16.07;68.81;101031.16;5050947;28;46293;-56
2022/04/13 08:35:32;;;;;;;;;9.50;8.50;;;;;15.89;68.44;100998.88;5042609;27;45662;-59
2022/04/13 08:37:58;;;;;;;;;8.50;8.50;;;;;16.15;68.73;101042.94;5052019;28;45519;-60
2022/04/13 08:40:23;;;;;;;;;10.75;9.00;;;;;16.15;68.64;101041.03;5052857;28;45764;-57
2022/04/13 08:43:09;;;;;;;;;7.00;7.00;;;;;16.19;68.95;101050.53;5066336;28;45960;-53
2022/04/13 08:45:38;;;;;;;;;10.00;9.80;;;;;16.16;68.71;101041.88;5049504;28;45759;-55
2022/04/13 08:48:05;;;;;;;;;15.60;13.60;;;;;16.21;68.90;101047.50;5034422;28;45909;-59
2022/04/13 08:50:31;;;;;;;;;11.00;9.60;;;;;16.29;68.46;101066.53;5051239;28;45423;-54
2022/04/13 08:53:02;;;;;;;;;13.20;10.20;;;;;16.21;67.97;101073.28;5048836;28;45999;-55
2022/04/13 08:55:28;;;;;;;;;8.40;8.40;;;;;16.13;68.12;101071.72;5051727;28;45802;-51
2022/04/13 08:58:00;;;;;;;;;12.60;11.40;;;;;16.07;68.55;101083.75;5067757;28;45522;-56
2022/04/13 09:00:26;;;;;;;;;14.40;14.40;;;;;16.14;69.33;101083.63;5033207;28;45691;-52
2022/04/13 09:03:10;;;;;;;;;13.75;12.75;;;;;16.15;69.50;101084.47;5066859;28;46756;-54
2022/04/13 09:05:36;;;;;;;;;12.60;12.60;;;;;16.19;69.57;101091.22;5049856;28;45443;-56
2022/04/13 09:08:05;;;;;;;;;13.00;12.00;;;;;15.97;69.07;101048.34;5051102;28;45898;-52
2022/04/13 09:10:31;;;;;;;;;14.40;11.40;;;;;15.88;68.76;101046.16;5052281;28;45448;-49
2022/04/13 09:12:57;;;;;;;;;16.20;13.20;;;;;16.17;68.91;101098.94;5066547;28;45720;-48
2022/04/13 09:15:23;;;;;;;;;8.25;8.25;;;;;16.05;68.79;101085.91;5016711;28;45431;-57
2022/04/13 09:17:48;;;;;;;;;10.50;9.50;;;;;15.94;69.26;101061.84;5065799;28;45434;-54
2022/04/13 09:20:14;;;;;;;;;9.50;9.50;;;;;16.18;68.99;101108.91;5052185;28;45670;-52
2022/04/13 09:22:41;;;;;;;;;11.00;9.50;;;;;16.23;68.95;101103.50;5020208;28;46532;-55
2022/04/13 09:25:07;;;;;;;;;6.80;5.00;;;;;16.22;68.90;101107.38;5033436;28;45602;-55
2022/04/13 09:27:37;;;;;;;;;10.00;8.00;;;;;16.23;68.72;101115.41;5054309;28;45491;-60
2022/04/13 09:30:13;;;;;;;;;14.40;11.20;;;;;16.30;68.81;101117.22;5055028;28;45886;-59
2022/04/13 09:32:39;;;;;;;;;9.40;9.40;;;;;16.30;69.30;101104.22;5054250;28;45725;-59
2022/04/13 09:35:05;;;;;;;;;10.25;8.50;;;;;16.34;68.30;101122.03;5035224;28;45639;-57
2022/04/13 09:37:31;;;;;;;;;10.40;9.40;;;;;16.35;68.82;101129.28;5020359;28;45380;-56
2022/04/13 09:39:56;;;;;;;;;9.50;8.25;;;;;16.21;68.76;101111.19;5054091;28;45576;-55
2022/04/13 09:42:25;;;;;;;;;10.75;10.75;;;;;16.27;68.40;101121.31;5020919;28;46150;-60
2022/04/13 09:44:57;;;;;;;;;11.80;11.40;;;;;16.18;69.14;101104.25;5054344;28;45296;-55
2022/04/13 09:47:29;;;;;;;;;11.40;11.40;;;;;16.10;69.33;101096.28;5054169;28;45445;-56
2022/04/13 09:49:56;;;;;;;;;11.00;11.00;;;;;16.34;68.73;101133.09;5034889;28;45488;-55
2022/04/13 09:52:41;;;;;;;;;14.80;11.60;;;;;16.33;69.14;101130.59;5050277;28;47594;-57
2022/04/13 09:55:07;;;;;;;;;13.60;12.20;;;;;15.95;69.32;101069.91;5033378;28;45344;-56
2022/04/13 09:57:33;;;;;;;;;12.20;12.20;;;;;16.34;69.43;101129.50;5015222;28;45449;-57
2022/04/13 09:59:59;;;;;;;;;16.25;15.25;;;;;16.38;69.44;101123.25;5021470;28;45546;-57
2022/04/13 10:02:35;;;;;;;;;13.00;10.60;;;;;16.38;68.21;101123.25;5070096;28;45401;-57
2022/04/13 10:05:01;;;;;;;;;15.00;11.40;;;;;16.35;68.18;101128.41;5053310;28;45779;-56
2022/04/13 10:07:27;;;;;;;;;13.00;10.40;;;;;16.30;68.24;101120.84;5036904;28;45626;-55
2022/04/13 10:09:52;;;;;;;;;14.75;11.50;;;;;16.31;68.27;101122.53;5052922;28;45926;-57
2022/04/13 10:12:18;;;;;;;;;15.00;12.00;;;;;16.31;68.55;101121.66;5053997;28;45817;-53
2022/04/13 10:14:44;;;;;;;;;15.25;11.25;;;;;16.29;68.96;101118.31;5054850;28;45870;-55
2022/04/13 10:17:12;;;;;;;;;13.20;11.60;;;;;16.29;69.29;101112.78;5054973;28;45491;-54
2022/04/13 10:19:39;;;;;;;;;13.00;10.60;;;;;16.18;69.50;101086.78;5069746;28;45408;-56
2022/04/13 10:22:04;;;;;;;;;12.40;11.80;;;;;16.39;68.63;101121.31;5086896;27;45811;-55
2022/04/13 10:24:32;;;;;;;;;17.50;14.25;;;;;16.01;68.96;101056.19;5053964;28;45361;-56
2022/04/13 10:27:10;;;;;;;;;11.40;11.00;;;;;16.33;68.89;101091.81;5068115;28;45450;-57
2022/04/13 10:29:48;;;;;;;;;17.80;11.40;;;;;16.59;68.21;101129.25;5054392;28;45759;-56
2022/04/13 10:32:15;;;;;;;;;13.60;12.40;;;;;16.60;68.53;101135.63;5017198;28;46740;-57
2022/04/13 10:34:47;;;;;;;;;16.00;13.00;;;;;16.59;68.76;101129.25;5053497;28;45865;-57
2022/04/13 10:37:14;;;;;;;;;13.80;10.80;;;;;16.63;67.77;101132.38;5053679;28;45401;-57
2022/04/13 10:39:41;;;;;;;;;11.20;10.20;;;;;16.56;67.94;101124.19;5054542;28;45786;-57
2022/04/13 10:42:08;;;;;;;;;10.00;9.00;;;;;16.66;67.69;101140.22;5052829;28;47098;-59
2022/04/13 10:45:03;;;;;;;;;14.60;10.40;;;;;16.65;67.49;101135.75;5034949;28;45433;-55
2022/04/13 10:47:50;;;;;;;;;11.20;9.40;;;;;16.73;67.30;101142.84;5048801;28;45386;-57
2022/04/13 10:50:17;;;;;;;;;13.00;10.60;;;;;16.78;67.61;101142.94;5033607;28;45545;-56
2022/04/13 10:52:56;;;;;;;;;8.60;8.60;;;;;16.79;67.23;101137.16;5026318;28;47034;-59
2022/04/13 10:55:21;;;;;;;;;10.80;10.80;;;;;16.87;67.44;101137.88;5054933;28;45294;-56
2022/04/13 10:57:50;;;;;;;;;11.00;9.50;;;;;16.94;67.07;101142.22;5042881;28;45409;-56
2022/04/13 11:00:17;;;;;;;;;12.60;12.00;;;;;16.94;67.38;101136.66;5028551;28;45406;-56
2022/04/13 11:02:47;;;;;;;;;9.20;9.00;;;;;16.96;67.04;101138.34;5070124;28;46191;-56
2022/04/13 11:05:13;;;;;;;;;10.80;9.60;;;;;16.89;66.32;101117.13;5070493;28;45456;-59
2022/04/13 11:07:39;;;;;;;;;10.00;9.00;;;;;16.89;66.99;101122.69;5073086;28;45341;-57
2022/04/13 11:10:06;;;;;;;;;10.20;10.20;;;;;16.87;66.23;101135.09;5058455;28;45574;-57
2022/04/13 11:12:31;;;;;;;;;9.20;7.20;;;;;16.57;66.30;101100.94;5057449;28;46870;-60
2022/04/13 11:14:59;;;;;;;;;8.25;8.25;;;;;16.76;66.33;101134.88;5074399;28;45433;-49
2022/04/13 11:17:26;;;;;;;;;7.00;6.60;;;;;16.80;66.41;101141.63;5058633;28;45362;-54
2022/04/13 11:20:00;;;;;;;;;7.60;7.60;;;;;16.86;66.70;101138.97;5059116;28;45518;-53